createdAt,value
2019-05-30T00:01:28.720Z,5.33
2019-05-30T00:03:56.017Z,4.53
2019-05-30T00:06:22.745Z,4.90
2019-05-30T00:08:49.308Z,4.77
2019-05-30T00:11:15.946Z,4.07
2019-05-30T00:13:42.586Z,4.60
2019-05-30T00:16:09.071Z,4.97
2019-05-30T00:18:35.829Z,4.90
2019-05-30T00:21:02.973Z,4.87
2019-05-30T00:23:29.574Z,4.80
2019-05-30T00:25:57.180Z,4.73
2019-05-30T00:28:23.764Z,4.30
2019-05-30T00:30:50.356Z,4.60
2019-05-30T00:33:17.007Z,5.17
2019-05-30T00:35:43.887Z,4.40
2019-05-30T00:38:10.503Z,4.83
2019-05-30T00:40:37.051Z,4.37
2019-05-30T00:43:04.252Z,4.40
2019-05-30T00:45:30.914Z,4.30
2019-05-30T00:47:58.072Z,4.53
2019-05-30T00:50:24.833Z,4.77
2019-05-30T00:52:51.494Z,4.70
2019-05-30T00:55:18.222Z,4.63
2019-05-30T00:57:44.859Z,4.50
2019-05-30T01:00:12.232Z,4.40
2019-05-30T01:02:38.894Z,5.13
2019-05-30T01:05:07.668Z,4.97
2019-05-30T01:07:34.406Z,4.77
2019-05-30T01:10:01.073Z,5.20
2019-05-30T01:12:27.942Z,5.17
2019-05-30T01:14:54.689Z,5.17
2019-05-30T01:17:21.197Z,5.03
2019-05-30T01:19:47.781Z,5.13
2019-05-30T01:22:14.675Z,4.67
2019-05-30T01:24:41.585Z,5.00
2019-05-30T01:27:08.129Z,5.07
2019-05-30T01:29:34.666Z,5.10
2019-05-30T01:32:21.062Z,4.77
2019-05-30T01:34:47.946Z,4.90
2019-05-30T01:37:14.497Z,4.77
2019-05-30T01:39:41.112Z,5.53
2019-05-30T01:42:07.982Z,4.93
2019-05-30T01:44:34.747Z,5.40
2019-05-30T01:47:01.984Z,4.97
2019-05-30T01:49:28.521Z,5.43
2019-05-30T01:51:55.059Z,5.00
2019-05-30T01:54:21.682Z,5.87
2019-05-30T01:56:48.381Z,5.20
2019-05-30T01:59:14.959Z,5.63
2019-05-30T02:01:41.919Z,5.47
2019-05-30T02:04:09.457Z,4.93
2019-05-30T02:06:38.167Z,5.17
2019-05-30T02:09:05.835Z,4.97
2019-05-30T02:11:32.421Z,4.70
2019-05-30T02:13:59.555Z,5.03
2019-05-30T02:16:26.409Z,5.80
2019-05-30T02:18:52.937Z,5.13
2019-05-30T02:21:19.564Z,5.07
2019-05-30T02:23:46.087Z,4.60
2019-05-30T02:26:12.613Z,4.83
2019-05-30T02:28:39.235Z,4.53
2019-05-30T02:31:07.149Z,4.80
2019-05-30T02:33:34.248Z,5.20
2019-05-30T02:36:01.725Z,4.63
2019-05-30T02:38:29.200Z,4.90
2019-05-30T02:40:55.754Z,5.33
2019-05-30T02:43:22.390Z,4.80
2019-05-30T02:45:48.938Z,5.77
2019-05-30T02:48:15.961Z,5.60
2019-05-30T02:50:42.649Z,5.10
2019-05-30T02:53:10.983Z,5.27
2019-05-30T02:55:38.357Z,4.67
2019-05-30T02:58:06.195Z,4.83
2019-05-30T03:00:34.879Z,5.30
2019-05-30T03:03:02.331Z,5.43
2019-05-30T03:05:30.062Z,4.97
2019-05-30T03:07:56.825Z,5.43
2019-05-30T03:10:23.443Z,5.37
2019-05-30T03:12:50.411Z,5.00
2019-05-30T03:15:17.581Z,5.10
2019-05-30T03:17:44.355Z,5.20
2019-05-30T03:20:21.473Z,4.90
2019-05-30T03:22:39.808Z,5.10
2019-05-30T03:25:07.869Z,5.43
2019-05-30T03:27:35.004Z,5.17
2019-05-30T03:30:05.124Z,4.80
2019-05-30T03:33:02.287Z,4.73
2019-05-30T03:34:58.815Z,5.80
2019-05-30T03:37:29.291Z,5.43
2019-05-30T03:39:54.204Z,5.40
2019-05-30T03:42:20.808Z,5.30
2019-05-30T03:44:47.504Z,5.40
2019-05-30T03:47:15.828Z,5.60
2019-05-30T03:49:43.183Z,5.80
2019-05-30T03:52:14.475Z,5.77
2019-05-30T03:54:40.912Z,5.67
2019-05-30T03:57:18.807Z,5.83
2019-05-30T03:59:49.359Z,5.30
2019-05-30T04:02:56.295Z,5.83
2019-05-30T04:05:13.076Z,5.53
2019-05-30T04:07:43.341Z,5.30
2019-05-30T04:10:11.418Z,6.07
2019-05-30T04:12:59.359Z,5.87
2019-05-30T04:15:30.925Z,6.47
2019-05-30T04:17:57.692Z,6.80
2019-05-30T04:20:30.021Z,6.03
2019-05-30T04:22:56.818Z,6.87
2019-05-30T04:25:23.718Z,6.43
2019-05-30T04:27:50.361Z,6.90
2019-05-30T04:30:18.508Z,6.33
2019-05-30T04:32:45.275Z,6.70
2019-05-30T04:35:12.341Z,5.63
2019-05-30T04:37:38.829Z,6.37
2019-05-30T04:40:05.914Z,6.17
2019-05-30T04:42:32.464Z,6.43
2019-05-30T04:44:59.003Z,6.20
2019-05-30T04:47:25.621Z,6.00
2019-05-30T04:49:52.232Z,6.27
2019-05-30T04:52:23.630Z,5.83
2019-05-30T04:54:47.577Z,5.83
2019-05-30T04:57:14.972Z,6.30
2019-05-30T04:59:41.994Z,6.43
2019-05-30T05:02:08.677Z,6.30
2019-05-30T05:04:35.201Z,6.40
2019-05-30T05:07:01.914Z,6.43
2019-05-30T05:09:28.603Z,6.40
2019-05-30T05:11:55.126Z,6.27
2019-05-30T05:14:22.699Z,6.73
2019-05-30T05:16:49.505Z,7.07
2019-05-30T05:19:17.210Z,6.73
2019-05-30T05:21:44.305Z,6.67
2019-05-30T05:24:10.861Z,6.47
2019-05-30T05:26:37.486Z,6.30
2019-05-30T05:29:04.290Z,6.40
2019-05-30T05:31:31.012Z,6.67
2019-05-30T05:33:57.597Z,7.20
2019-05-30T05:36:25.221Z,6.73
2019-05-30T05:38:51.762Z,6.17
2019-05-30T05:41:18.277Z,6.37
2019-05-30T05:43:44.894Z,6.23
2019-05-30T05:46:11.650Z,6.87
2019-05-30T05:48:38.276Z,6.37
2019-05-30T05:51:05.005Z,5.93
2019-05-30T05:53:31.668Z,7.13
2019-05-30T05:55:58.274Z,7.10
2019-05-30T05:58:26.433Z,8.10
2019-05-30T06:00:53.329Z,6.60
2019-05-30T06:03:20.362Z,7.57
2019-05-30T06:05:52.995Z,7.13
2019-05-30T06:08:15.519Z,7.40
2019-05-30T06:10:42.785Z,6.73
2019-05-30T06:13:09.430Z,6.60
2019-05-30T06:15:36.090Z,7.30
2019-05-30T06:18:02.747Z,7.87
2019-05-30T06:20:29.385Z,7.23
2019-05-30T06:22:56.080Z,6.77
2019-05-30T06:25:26.615Z,7.43
2019-05-30T06:27:51.210Z,7.50
2019-05-30T06:30:18.258Z,7.67
2019-05-30T06:32:45.172Z,8.00
2019-05-30T06:35:12.377Z,7.50
2019-05-30T06:37:39.085Z,7.90
2019-05-30T06:40:06.105Z,7.33
2019-05-30T06:42:32.740Z,7.13
2019-05-30T06:45:00.392Z,7.60
2019-05-30T06:47:26.912Z,6.87
2019-05-30T06:49:53.519Z,6.70
2019-05-30T06:52:20.867Z,7.60
2019-05-30T06:54:47.922Z,6.67
2019-05-30T06:57:14.459Z,6.77
2019-05-30T06:59:41.047Z,5.77
2019-05-30T07:02:07.679Z,6.80
2019-05-30T07:04:50.205Z,5.33
2019-05-30T07:07:05.990Z,5.37
2019-05-30T07:09:32.814Z,5.20
2019-05-30T07:11:59.611Z,4.93
2019-05-30T07:14:27.270Z,4.17
2019-05-30T07:16:53.937Z,4.37
2019-05-30T07:19:20.472Z,4.30
2019-05-30T07:21:47.011Z,3.47
2019-05-30T07:24:13.543Z,3.00
2019-05-30T07:26:40.328Z,3.50
2019-05-30T07:29:06.960Z,3.00
2019-05-30T07:31:34.393Z,3.20
2019-05-30T07:34:01.221Z,2.70
2019-05-30T07:36:28.232Z,2.60
2019-05-30T07:38:54.774Z,2.57
2019-05-30T07:41:21.314Z,2.10
2019-05-30T07:43:47.841Z,1.30
2019-05-30T07:46:14.405Z,1.83
2019-05-30T07:48:40.940Z,1.60
2019-05-30T07:51:07.972Z,1.87
2019-05-30T07:53:35.345Z,1.50
2019-05-30T07:56:01.900Z,1.30
2019-05-30T07:58:29.037Z,1.80
2019-05-30T08:00:56.714Z,1.07
2019-05-30T08:03:23.745Z,1.10
2019-05-30T08:05:50.725Z,1.20
2019-05-30T08:08:17.385Z,1.87
2019-05-30T08:10:44.399Z,1.60
2019-05-30T08:13:11.059Z,1.60
2019-05-30T08:15:43.790Z,1.30
2019-05-30T08:18:06.763Z,1.50
2019-05-30T08:20:33.948Z,1.43
2019-05-30T08:23:00.866Z,1.47
2019-05-30T08:25:27.967Z,1.90
2019-05-30T08:27:54.596Z,1.03
2019-05-30T08:30:21.745Z,1.20
2019-05-30T08:32:48.477Z,1.03
2019-05-30T08:35:15.362Z,1.20
2019-05-30T08:37:42.032Z,1.40
2019-05-30T08:40:10.187Z,1.10
2019-05-30T08:42:38.364Z,1.33
2019-05-30T08:45:09.658Z,1.07
2019-05-30T08:47:36.031Z,0.90
2019-05-30T08:50:03.310Z,0.80
2019-05-30T08:52:34.414Z,0.70
2019-05-30T08:55:01.333Z,0.70
2019-05-30T08:57:28.049Z,0.70
2019-05-30T08:59:54.972Z,0.90
2019-05-30T09:02:21.863Z,0.80
2019-05-30T09:04:48.524Z,0.90
2019-05-30T09:07:15.227Z,0.70
2019-05-30T09:09:42.243Z,0.80
2019-05-30T09:12:09.002Z,0.80
2019-05-30T09:14:37.352Z,1.03
2019-05-30T09:17:04.313Z,0.90
2019-05-30T09:19:31.430Z,0.70
2019-05-30T09:21:58.077Z,0.70
2019-05-30T09:24:25.581Z,1.40
2019-05-30T09:26:52.508Z,0.73
2019-05-30T09:29:19.247Z,0.70
2019-05-30T09:31:46.685Z,0.90
2019-05-30T09:34:13.797Z,1.03
2019-05-30T09:36:41.020Z,0.97
2019-05-30T09:39:08.236Z,1.33
2019-05-30T09:41:35.034Z,0.90
2019-05-30T09:44:01.794Z,0.83
2019-05-30T09:46:28.532Z,0.90
2019-05-30T09:48:55.180Z,0.90
2019-05-30T09:51:21.800Z,0.70
2019-05-30T09:53:48.753Z,1.30
2019-05-30T09:56:15.838Z,0.70
2019-05-30T09:58:43.836Z,1.50
2019-05-30T10:01:10.742Z,1.17
2019-05-30T10:03:37.402Z,0.70
2019-05-30T10:06:04.275Z,1.60
2019-05-30T10:08:31.063Z,0.80
2019-05-30T10:10:58.268Z,0.90
2019-05-30T10:13:24.805Z,0.87
2019-05-30T10:15:52.592Z,0.80
2019-05-30T10:18:19.309Z,0.80
2019-05-30T10:20:47.755Z,0.90
2019-05-30T10:23:14.605Z,1.10
2019-05-30T10:25:41.324Z,0.80
2019-05-30T10:28:08.083Z,0.77
2019-05-30T10:30:34.890Z,0.80
2019-05-30T10:33:01.511Z,0.70
2019-05-30T10:35:31.655Z,0.60
2019-05-30T10:38:01.185Z,0.63
2019-05-30T10:40:32.109Z,1.10
2019-05-30T10:42:57.821Z,1.00
2019-05-30T10:45:26.498Z,0.87
2019-05-30T10:47:53.761Z,0.70
2019-05-30T10:50:20.647Z,0.70
2019-05-30T10:52:47.361Z,0.80
2019-05-30T10:55:16.098Z,0.73
2019-05-30T10:57:42.807Z,0.60
2019-05-30T11:00:11.914Z,0.80
2019-05-30T11:02:38.871Z,0.80
2019-05-30T11:05:05.705Z,0.80
2019-05-30T11:08:00.252Z,0.60
2019-05-30T11:10:30.488Z,0.70
2019-05-30T11:13:05.279Z,0.90
2019-05-30T11:15:25.800Z,0.47
2019-05-30T11:17:53.357Z,0.70
2019-05-30T11:20:21.136Z,0.70
2019-05-30T11:22:48.240Z,0.50
2019-05-30T11:25:15.118Z,1.07
2019-05-30T11:27:42.048Z,1.80
2019-05-30T11:30:09.579Z,1.00
2019-05-30T11:32:36.388Z,0.80
2019-05-30T11:35:03.769Z,0.80
2019-05-30T11:37:30.745Z,0.60
2019-05-30T11:39:57.551Z,0.70
2019-05-30T11:42:24.628Z,0.87
2019-05-30T11:44:51.465Z,0.70
2019-05-30T11:47:18.258Z,0.60
2019-05-30T11:49:45.969Z,0.70
2019-05-30T11:52:12.580Z,0.60
2019-05-30T11:54:39.235Z,0.70
2019-05-30T11:57:05.866Z,0.50
2019-05-30T11:59:32.391Z,0.60
2019-05-30T12:01:59.095Z,0.67
2019-05-30T12:04:25.694Z,0.40
2019-05-30T12:06:53.119Z,0.60
2019-05-30T12:09:20.369Z,0.70
2019-05-30T12:11:46.902Z,0.70
2019-05-30T12:14:13.473Z,0.60
2019-05-30T12:16:39.999Z,0.60
2019-05-30T12:19:06.652Z,0.60
2019-05-30T12:21:33.323Z,0.60
2019-05-30T12:24:00.362Z,0.40
2019-05-30T12:26:27.095Z,0.63
2019-05-30T12:28:54.080Z,0.50
2019-05-30T12:31:21.129Z,0.60
2019-05-30T12:33:49.227Z,0.57
2019-05-30T12:36:16.219Z,0.67
2019-05-30T12:38:43.209Z,0.73
2019-05-30T12:41:10.018Z,0.60
2019-05-30T12:43:37.034Z,0.90
2019-05-30T12:46:04.076Z,0.60
2019-05-30T12:48:30.937Z,0.53
2019-05-30T12:50:57.667Z,0.70
2019-05-30T12:53:24.317Z,0.60
2019-05-30T12:55:54.371Z,0.50
2019-05-30T12:58:21.555Z,0.70
2019-05-30T13:00:48.371Z,0.50
2019-05-30T13:03:15.195Z,0.63
2019-05-30T13:05:42.083Z,0.90
2019-05-30T13:08:20.594Z,0.50
2019-05-30T13:10:37.705Z,0.60
2019-05-30T13:13:06.189Z,0.50
2019-05-30T13:15:33.165Z,0.60
2019-05-30T13:18:00.904Z,0.60
2019-05-30T13:20:28.745Z,0.77
2019-05-30T13:22:56.288Z,0.70
2019-05-30T13:25:23.144Z,0.60
2019-05-30T13:27:49.898Z,0.70
2019-05-30T13:30:16.863Z,0.70
2019-05-30T13:32:43.622Z,0.73
2019-05-30T13:35:12.301Z,0.50
2019-05-30T13:37:39.080Z,0.50
2019-05-30T13:40:20.791Z,0.57
2019-05-30T13:42:35.079Z,0.67
2019-05-30T13:45:02.163Z,0.50
2019-05-30T13:47:28.957Z,0.70
2019-05-30T13:49:55.626Z,0.50
2019-05-30T13:52:22.285Z,0.63
2019-05-30T13:54:48.924Z,0.70
2019-05-30T13:57:16.488Z,0.50
2019-05-30T13:59:43.242Z,0.70
2019-05-30T14:02:10.292Z,0.47
2019-05-30T14:04:37.299Z,0.90
2019-05-30T14:07:04.268Z,0.80
2019-05-30T14:09:30.892Z,0.93
2019-05-30T14:11:58.052Z,0.67
2019-05-30T14:14:24.623Z,0.80
2019-05-30T14:16:51.492Z,0.60
2019-05-30T14:19:18.494Z,0.60
2019-05-30T14:21:45.329Z,0.70
2019-05-30T14:24:12.210Z,0.67
2019-05-30T14:26:38.928Z,1.03
2019-05-30T14:29:05.792Z,1.20
2019-05-30T14:31:32.437Z,0.73
2019-05-30T14:33:59.413Z,0.60
2019-05-30T14:36:25.974Z,0.53
2019-05-30T14:38:58.146Z,0.70
2019-05-30T14:41:21.532Z,0.70
2019-05-30T14:43:48.280Z,0.70
2019-05-30T14:46:15.007Z,0.70
2019-05-30T14:48:42.057Z,0.70
2019-05-30T14:51:08.745Z,0.50
2019-05-30T14:53:35.455Z,0.70
2019-05-30T14:56:02.443Z,0.77
2019-05-30T14:58:29.220Z,0.67
2019-05-30T15:00:55.741Z,1.00
2019-05-30T15:03:22.391Z,0.50
2019-05-30T15:05:49.570Z,0.73
2019-05-30T15:08:16.888Z,0.50
2019-05-30T15:10:43.955Z,0.70
2019-05-30T15:13:11.678Z,0.80
2019-05-30T15:15:38.623Z,0.57
2019-05-30T15:18:05.423Z,0.60
2019-05-30T15:20:32.165Z,0.67
2019-05-30T15:22:59.018Z,0.70
2019-05-30T15:25:25.750Z,0.90
2019-05-30T15:27:52.484Z,0.40
2019-05-30T15:30:19.581Z,0.70
2019-05-30T15:32:46.261Z,0.60
2019-05-30T15:35:15.540Z,0.60
2019-05-30T15:37:42.401Z,0.67
2019-05-30T15:40:09.472Z,0.50
2019-05-30T15:42:36.316Z,0.53
2019-05-30T15:45:04.170Z,0.50
2019-05-30T15:47:30.897Z,0.50
2019-05-30T15:49:57.537Z,0.40
2019-05-30T15:52:24.356Z,0.60
2019-05-30T15:54:51.141Z,0.70
2019-05-30T15:57:17.897Z,0.70
2019-05-30T15:59:44.591Z,0.70
2019-05-30T16:02:11.929Z,0.60
2019-05-30T16:04:38.772Z,0.50
2019-05-30T16:07:05.538Z,0.50
2019-05-30T16:09:46.327Z,0.53
2019-05-30T16:12:00.771Z,0.60
2019-05-30T16:14:27.519Z,0.60
2019-05-30T16:16:54.252Z,0.80
2019-05-30T16:19:24.764Z,0.70
2019-05-30T16:21:49.480Z,0.40
2019-05-30T16:24:16.448Z,0.60
2019-05-30T16:26:43.073Z,0.60
2019-05-30T16:29:09.991Z,0.60
2019-05-30T16:31:36.943Z,0.53
2019-05-30T16:34:03.681Z,0.83
2019-05-30T16:36:32.071Z,0.50
2019-05-30T17:54:33.013Z,1.27
2019-05-30T17:56:59.638Z,0.83
2019-05-30T17:59:26.474Z,1.00
2019-05-30T18:01:53.035Z,1.00
2019-05-30T18:04:20.373Z,0.83
2019-05-30T18:06:47.355Z,1.00
2019-05-30T18:09:14.109Z,0.90
2019-05-30T18:11:41.043Z,1.00
2019-05-30T18:14:07.961Z,1.07
2019-05-30T18:16:34.489Z,1.10
2019-05-30T18:19:01.176Z,1.27
2019-05-30T18:21:27.840Z,1.20
2019-05-30T18:23:54.371Z,1.20
2019-05-30T18:26:21.476Z,1.00
2019-05-30T18:28:48.311Z,1.00
2019-05-30T18:31:15.018Z,1.27
2019-05-30T18:33:41.786Z,1.10
2019-05-30T18:36:08.495Z,1.37
2019-05-30T18:38:35.290Z,1.07
2019-05-30T18:41:10.731Z,1.10
2019-05-30T18:43:31.478Z,1.10
2019-05-30T18:45:58.168Z,1.27
2019-05-30T18:48:25.297Z,1.00
2019-05-30T18:50:52.342Z,1.33
2019-05-30T18:53:18.982Z,1.50
2019-05-30T18:55:45.757Z,1.50
2019-05-30T18:58:12.409Z,1.40
2019-05-30T19:00:39.230Z,1.40
2019-05-30T19:03:05.970Z,1.43
2019-05-30T19:05:32.709Z,1.10
2019-05-30T19:07:59.194Z,1.50
2019-05-30T19:10:27.814Z,1.20
2019-05-30T19:12:54.581Z,1.30
2019-05-30T19:15:21.626Z,1.20
2019-05-30T19:17:48.141Z,1.30
2019-05-30T19:20:15.543Z,1.43
2019-05-30T19:22:42.210Z,1.30
2019-05-30T19:25:09.184Z,1.30
2019-05-30T19:27:37.095Z,1.77
2019-05-30T19:30:05.175Z,1.20
2019-05-30T19:32:32.709Z,1.70
2019-05-30T19:34:59.800Z,1.63
2019-05-30T19:37:27.048Z,1.57
2019-05-30T19:39:53.635Z,1.50
2019-05-30T19:42:20.203Z,1.60
2019-05-30T19:44:46.776Z,1.23
2019-05-30T19:47:13.553Z,1.27
2019-05-30T19:49:40.225Z,1.40
2019-05-30T19:52:06.970Z,1.50
2019-05-30T19:54:33.525Z,1.70
2019-05-30T19:57:00.242Z,1.00
2019-05-30T19:59:26.886Z,1.13
2019-05-30T20:01:53.545Z,1.40
2019-05-30T20:04:20.482Z,1.10
2019-05-30T20:06:47.116Z,1.03
2019-05-30T20:09:13.845Z,1.60
2019-05-30T20:11:41.574Z,1.40
2019-05-30T20:14:08.290Z,1.30
2019-05-30T20:16:35.754Z,1.17
2019-05-30T20:19:02.589Z,1.50
2019-05-30T20:21:29.275Z,1.43
2019-05-30T20:23:59.419Z,1.50
2019-05-30T20:26:24.785Z,1.53
2019-05-30T20:28:51.719Z,1.20
2019-05-30T20:31:18.440Z,1.30
2019-05-30T20:33:45.129Z,1.53
2019-05-30T20:36:11.855Z,1.67
2019-05-30T20:38:38.689Z,1.80
2019-05-30T20:41:05.380Z,1.30
2019-05-30T20:43:33.295Z,1.40
2019-05-30T20:46:00.116Z,1.40
2019-05-30T20:48:26.978Z,1.50
2019-05-30T20:50:53.696Z,1.40
2019-05-30T20:53:20.646Z,1.60
2019-05-30T20:55:47.754Z,1.40
2019-05-30T20:58:14.442Z,1.40
2019-05-30T21:00:42.170Z,1.67
2019-05-30T21:03:09.151Z,1.77
2019-05-30T21:05:35.904Z,1.70
2019-05-30T21:08:05.826Z,1.73
2019-05-30T21:10:32.335Z,1.53
2019-05-30T21:12:59.379Z,1.77
2019-05-30T21:15:26.053Z,1.57
2019-05-30T21:17:52.748Z,1.63
2019-05-30T21:20:19.394Z,2.13
2019-05-30T21:22:46.712Z,2.00
2019-05-30T21:25:14.266Z,1.57
2019-05-30T21:27:40.964Z,1.90
2019-05-30T21:30:07.785Z,2.00
2019-05-30T21:32:34.577Z,1.80
2019-05-30T21:35:01.393Z,1.70
2019-05-30T21:37:29.183Z,1.70
2019-05-30T21:39:55.884Z,2.00
2019-05-30T21:42:22.541Z,1.63
2019-05-30T21:44:52.564Z,2.10
2019-05-30T21:47:17.777Z,2.47
2019-05-30T21:49:44.921Z,1.90
2019-05-30T21:52:11.681Z,1.60
2019-05-30T21:54:39.694Z,1.40
2019-05-30T21:57:06.470Z,2.13
2019-05-30T21:59:33.024Z,1.70
2019-05-30T22:01:59.917Z,1.73
2019-05-30T22:04:26.694Z,1.90
2019-05-30T22:06:53.301Z,1.57
2019-05-30T22:09:20.020Z,1.63
2019-05-30T22:11:47.686Z,1.83
2019-05-30T22:14:14.270Z,2.00
2019-05-30T22:16:41.776Z,1.67
2019-05-30T22:19:08.460Z,1.97
2019-05-30T22:21:35.074Z,1.40
2019-05-30T22:24:01.677Z,1.90
2019-05-30T22:26:28.302Z,1.73
2019-05-30T22:28:54.926Z,2.10
2019-05-30T22:31:21.535Z,1.77
2019-05-30T22:33:48.755Z,2.13
2019-05-30T22:36:15.379Z,2.00
2019-05-30T22:38:42.740Z,2.03
2019-05-30T22:41:09.564Z,2.20
2019-05-30T22:43:36.447Z,1.80
2019-05-30T22:46:03.213Z,1.90
2019-05-30T22:48:29.728Z,1.80
2019-05-30T22:50:57.051Z,1.70
2019-05-30T22:53:23.831Z,1.83
2019-05-30T22:55:51.978Z,1.70
2019-05-30T22:58:19.064Z,1.67
2019-05-30T23:00:46.006Z,1.47
2019-05-30T23:03:12.732Z,1.50
2019-05-30T23:05:39.363Z,1.70
2019-05-30T23:08:05.906Z,1.60
2019-05-30T23:10:32.534Z,1.53
2019-05-30T23:15:39.125Z,1.70
2019-05-30T23:18:05.851Z,2.00
2019-05-30T23:20:32.447Z,1.47
2019-05-30T23:22:59.064Z,1.73
2019-05-30T23:25:25.675Z,1.60
2019-05-30T23:27:52.261Z,1.97
2019-05-30T23:30:19.974Z,1.60
2019-05-30T23:32:46.515Z,2.00
2019-05-30T23:35:13.127Z,1.90
2019-05-30T23:37:39.795Z,2.20
2019-05-30T23:40:06.631Z,1.90
2019-05-30T23:42:33.208Z,1.70
2019-05-30T23:44:59.843Z,1.70
2019-05-30T23:47:26.599Z,1.83
2019-05-30T23:49:53.808Z,2.23
2019-05-30T23:52:20.533Z,2.10
2019-05-30T23:54:47.098Z,2.20
2019-05-30T23:57:13.614Z,1.97
2019-05-30T23:59:40.262Z,1.50
